createdAt,value
2023-04-23T00:00:54.657Z,6.53
2023-04-23T00:03:12.212Z,6.93
2023-04-23T00:05:29.368Z,6.10
2023-04-23T00:07:47.699Z,6.00
2023-04-23T00:10:04.847Z,5.75
2023-04-23T00:12:21.856Z,6.40
2023-04-23T00:14:40.138Z,7.50
2023-04-23T00:16:57.509Z,7.13
2023-04-23T00:19:17.308Z,5.72
2023-04-23T00:21:34.341Z,6.10
2023-04-23T00:23:51.656Z,5.72
2023-04-23T00:26:08.987Z,5.90
2023-04-23T00:28:26.106Z,5.30
2023-04-23T00:30:43.352Z,5.63
2023-04-23T00:33:00.404Z,5.60
2023-04-23T00:35:17.414Z,5.88
2023-04-23T00:37:35.505Z,5.53
2023-04-23T00:39:52.586Z,5.97
2023-04-23T00:42:09.828Z,6.28
2023-04-23T00:44:26.895Z,5.32
2023-04-23T00:46:45.226Z,6.18
2023-04-23T00:49:04.490Z,6.35
2023-04-23T00:51:21.771Z,5.63
2023-04-23T00:53:38.695Z,5.75
2023-04-23T00:55:57.048Z,5.70
2023-04-23T00:58:14.314Z,5.10
2023-04-23T01:00:31.585Z,5.13
2023-04-23T01:02:48.758Z,5.30
2023-04-23T01:05:05.893Z,5.45
2023-04-23T01:07:23.132Z,4.80
2023-04-23T01:09:40.088Z,4.45
2023-04-23T01:11:57.322Z,4.43
2023-04-23T01:14:14.594Z,4.90
2023-04-23T01:16:31.873Z,4.63
2023-04-23T01:18:48.822Z,4.22
2023-04-23T01:21:05.713Z,4.63
2023-04-23T01:23:23.771Z,4.57
2023-04-23T01:25:40.791Z,5.03
2023-04-23T01:27:58.966Z,5.00
2023-04-23T01:30:15.985Z,4.43
2023-04-23T01:32:33.337Z,4.10
2023-04-23T01:34:50.315Z,4.45
2023-04-23T01:37:08.539Z,4.82
2023-04-23T01:39:25.811Z,4.80
2023-04-23T01:41:43.078Z,4.95
2023-04-23T01:44:00.288Z,4.80
2023-04-23T01:46:17.292Z,5.00
2023-04-23T01:48:35.398Z,4.85
2023-04-23T01:50:52.686Z,4.20
2023-04-23T01:53:09.720Z,4.28
2023-04-23T01:55:26.786Z,4.35
2023-04-23T01:57:44.037Z,3.97
2023-04-23T02:00:01.118Z,4.10
2023-04-23T02:02:18.205Z,3.80
2023-04-23T02:04:35.295Z,3.65
2023-04-23T02:06:52.573Z,3.75
2023-04-23T02:09:10.823Z,3.95
2023-04-23T02:11:27.853Z,3.80
2023-04-23T02:13:44.849Z,3.83
2023-04-23T02:16:01.926Z,3.50
2023-04-23T02:18:19.060Z,3.53
2023-04-23T02:20:36.374Z,4.03
2023-04-23T02:22:53.305Z,3.40
2023-04-23T02:25:10.543Z,3.38
2023-04-23T02:27:27.463Z,3.60
2023-04-23T02:29:44.566Z,4.15
2023-04-23T02:32:01.536Z,3.53
2023-04-23T02:34:18.581Z,3.85
2023-04-23T02:36:36.779Z,3.90
2023-04-23T02:38:53.836Z,3.50
2023-04-23T02:41:11.066Z,3.45
2023-04-23T02:43:28.142Z,4.05
2023-04-23T02:45:45.077Z,3.78
2023-04-23T02:48:02.206Z,3.70
2023-04-23T02:50:19.222Z,3.90
2023-04-23T02:52:36.238Z,3.85
2023-04-23T02:54:53.331Z,3.72
2023-04-23T02:57:10.646Z,3.33
2023-04-23T02:59:27.947Z,3.75
2023-04-23T03:01:45.250Z,6.07
2023-04-23T03:04:02.566Z,4.60
2023-04-23T03:06:19.965Z,4.43
2023-04-23T03:08:37.025Z,3.97
2023-04-23T03:10:54.057Z,4.10
2023-04-23T03:13:11.405Z,3.63
2023-04-23T03:15:29.444Z,4.10
2023-04-23T03:17:46.723Z,4.00
2023-04-23T03:20:04.218Z,3.35
2023-04-23T03:22:21.539Z,3.30
2023-04-23T03:24:38.951Z,3.38
2023-04-23T03:26:56.403Z,3.30
2023-04-23T03:29:13.408Z,3.60
2023-04-23T03:31:30.733Z,3.10
2023-04-23T03:33:47.996Z,3.40
2023-04-23T03:36:05.252Z,3.08
2023-04-23T03:38:23.239Z,3.30
2023-04-23T03:40:40.306Z,3.45
2023-04-23T03:42:57.265Z,2.90
2023-04-23T03:45:14.478Z,3.22
2023-04-23T03:47:31.804Z,3.40
2023-04-23T03:49:48.833Z,3.20
2023-04-23T03:52:06.186Z,3.17
2023-04-23T03:54:23.208Z,3.70
2023-04-23T03:56:40.424Z,3.50
2023-04-23T03:58:57.519Z,3.63
2023-04-23T04:01:14.836Z,3.30
2023-04-23T04:03:32.947Z,3.63
2023-04-23T04:05:50.087Z,3.40
2023-04-23T04:08:07.143Z,4.28
2023-04-23T04:10:24.132Z,4.53
2023-04-23T04:12:41.409Z,4.30
2023-04-23T04:14:58.438Z,4.40
2023-04-23T04:17:15.743Z,4.05
2023-04-23T04:19:32.681Z,4.05
2023-04-23T04:21:50.613Z,3.70
2023-04-23T04:24:07.654Z,3.70
2023-04-23T04:26:24.837Z,3.72
2023-04-23T04:28:41.890Z,3.80
2023-04-23T04:30:58.805Z,4.38
2023-04-23T04:33:15.861Z,4.35
2023-04-23T04:35:32.809Z,4.13
2023-04-23T04:37:49.764Z,4.47
2023-04-23T04:40:06.764Z,4.57
2023-04-23T04:42:23.773Z,4.55
2023-04-23T04:44:41.092Z,4.90
2023-04-23T04:46:58.372Z,4.65
2023-04-23T04:49:15.668Z,5.22
2023-04-23T04:51:32.641Z,5.05
2023-04-23T04:53:49.732Z,5.10
2023-04-23T04:56:07.062Z,5.60
2023-04-23T04:58:24.122Z,5.80
2023-04-23T05:00:42.312Z,5.13
2023-04-23T05:02:59.465Z,8.38
2023-04-23T05:05:17.712Z,15.13
2023-04-23T05:07:34.782Z,12.15
2023-04-23T05:09:51.759Z,12.35
2023-04-23T05:12:09.016Z,8.32
2023-04-23T05:14:26.053Z,6.40
2023-04-23T05:16:43.357Z,6.60
2023-04-23T05:19:00.622Z,9.50
2023-04-23T05:21:18.559Z,11.90
2023-04-23T05:23:35.628Z,16.05
2023-04-23T05:25:54.213Z,14.00
2023-04-23T05:28:11.516Z,11.30
2023-04-23T05:30:29.540Z,11.05
2023-04-23T05:32:47.764Z,9.32
2023-04-23T05:35:04.779Z,16.55
2023-04-23T05:37:21.688Z,27.73
2023-04-23T05:39:38.642Z,35.60
2023-04-23T05:41:55.614Z,14.75
2023-04-23T05:44:12.618Z,11.00
2023-04-23T05:46:29.648Z,16.20
2023-04-23T05:48:46.983Z,14.65
2023-04-23T05:51:04.941Z,12.75
2023-04-23T05:53:23.162Z,8.30
2023-04-23T05:55:39.994Z,30.70
2023-04-23T05:57:57.053Z,37.58
2023-04-23T06:00:13.982Z,24.73
2023-04-23T06:02:31.008Z,21.42
2023-04-23T06:04:48.581Z,16.92
2023-04-23T06:07:06.072Z,10.57
2023-04-23T06:09:23.134Z,8.90
2023-04-23T06:11:40.164Z,7.68
2023-04-23T06:13:57.429Z,7.75
2023-04-23T06:16:14.453Z,6.68
2023-04-23T06:18:31.674Z,7.63
2023-04-23T06:20:48.896Z,7.20
2023-04-23T06:23:05.908Z,7.13
2023-04-23T06:25:22.985Z,7.70
2023-04-23T06:27:40.226Z,6.72
2023-04-23T06:29:57.268Z,6.78
2023-04-23T06:32:14.496Z,6.50
2023-04-23T06:34:31.559Z,5.95
2023-04-23T06:36:48.625Z,7.85
2023-04-23T06:39:05.662Z,7.43
2023-04-23T06:41:23.562Z,7.22
2023-04-23T06:43:40.904Z,7.22
2023-04-23T06:45:58.896Z,8.05
2023-04-23T06:48:16.046Z,8.10
2023-04-23T06:50:33.032Z,7.00
2023-04-23T06:52:51.080Z,7.65
2023-04-23T06:55:08.208Z,8.00
2023-04-23T06:57:26.256Z,8.38
2023-04-23T06:59:44.216Z,8.52
2023-04-23T07:02:02.297Z,8.82
2023-04-23T07:04:19.365Z,8.45
2023-04-23T07:06:36.635Z,9.15
2023-04-23T07:08:53.632Z,17.83
2023-04-23T07:11:10.690Z,20.45
2023-04-23T07:13:27.938Z,19.10
2023-04-23T07:15:45.847Z,15.00
2023-04-23T07:18:03.014Z,16.52
2023-04-23T07:20:20.136Z,14.15
2023-04-23T07:22:37.098Z,13.00
2023-04-23T07:24:54.002Z,12.52
2023-04-23T07:27:11.038Z,12.63
2023-04-23T07:29:28.105Z,13.00
2023-04-23T07:31:45.163Z,12.63
2023-04-23T07:34:02.135Z,11.65
2023-04-23T07:36:19.371Z,10.85
2023-04-23T07:38:37.705Z,11.20
2023-04-23T07:40:54.560Z,10.88
2023-04-23T07:43:11.639Z,10.30
2023-04-23T07:45:28.591Z,9.38
2023-04-23T07:47:45.617Z,8.30
2023-04-23T07:50:02.906Z,8.73
2023-04-23T07:52:20.178Z,7.75
2023-04-23T07:54:37.094Z,7.78
2023-04-23T07:56:54.368Z,7.90
2023-04-23T07:59:12.628Z,8.38
2023-04-23T08:01:29.572Z,7.82
2023-04-23T08:03:46.788Z,7.82
2023-04-23T08:06:04.139Z,9.73
2023-04-23T08:08:21.367Z,7.88
2023-04-23T08:10:38.405Z,6.78
2023-04-23T08:12:55.239Z,6.45
2023-04-23T08:15:12.538Z,5.82
2023-04-23T08:17:29.627Z,7.28
2023-04-23T08:19:46.636Z,6.88
2023-04-23T08:22:03.780Z,6.53
2023-04-23T08:24:20.902Z,6.45
2023-04-23T08:26:37.895Z,6.57
2023-04-23T08:28:55.181Z,7.70
2023-04-23T08:31:22.867Z,5.85
2023-04-23T08:33:43.169Z,5.20
2023-04-23T08:36:00.212Z,5.10
2023-04-23T08:38:18.273Z,4.95
2023-04-23T08:40:35.467Z,4.90
2023-04-23T08:42:52.514Z,4.80
2023-04-23T08:45:09.784Z,4.82
2023-04-23T08:47:26.858Z,4.80
2023-04-23T08:49:43.972Z,6.45
2023-04-23T08:52:01.249Z,4.93
2023-04-23T08:54:19.602Z,4.57
2023-04-23T08:56:36.875Z,4.85
2023-04-23T08:58:56.383Z,5.25
2023-04-23T09:01:14.123Z,4.50
2023-04-23T09:03:31.303Z,4.55
2023-04-23T09:05:48.367Z,4.63
2023-04-23T09:08:05.402Z,4.40
2023-04-23T09:10:22.756Z,3.90
2023-04-23T09:12:39.836Z,3.60
2023-04-23T09:14:56.829Z,3.70
2023-04-23T09:17:13.844Z,3.67
2023-04-23T09:19:30.892Z,3.40
2023-04-23T09:21:47.896Z,3.38
2023-04-23T09:24:05.111Z,3.70
2023-04-23T09:26:22.143Z,3.90
2023-04-23T09:28:39.154Z,3.58
2023-04-23T09:30:57.197Z,3.47
2023-04-23T09:33:14.444Z,3.53
2023-04-23T09:35:31.447Z,3.35
2023-04-23T09:37:49.506Z,3.40
2023-04-23T09:40:06.903Z,3.30
2023-04-23T09:42:23.971Z,2.80
2023-04-23T09:44:40.901Z,2.85
2023-04-23T09:46:58.139Z,2.67
2023-04-23T09:49:15.042Z,2.60
2023-04-23T09:51:32.116Z,2.80
2023-04-23T09:53:49.110Z,2.88
2023-04-23T09:56:06.177Z,2.83
2023-04-23T09:58:23.383Z,2.72
2023-04-23T10:00:40.625Z,2.90
2023-04-23T10:02:57.939Z,2.42
2023-04-23T10:07:38.878Z,2.33
2023-04-23T10:09:56.133Z,2.50
2023-04-23T10:12:31.416Z,2.72
2023-04-23T10:14:50.277Z,2.70
2023-04-23T10:17:07.359Z,2.80
2023-04-23T10:19:24.637Z,2.40
2023-04-23T10:21:52.334Z,2.50
2023-04-23T10:24:12.173Z,2.72
2023-04-23T10:26:29.182Z,2.70
2023-04-23T10:28:46.190Z,2.50
2023-04-23T10:31:03.147Z,2.25
2023-04-23T10:33:29.398Z,2.30
2023-04-23T10:35:48.760Z,2.25
2023-04-23T10:38:05.818Z,2.17
2023-04-23T10:40:22.792Z,2.35
2023-04-23T10:42:39.866Z,2.55
2023-04-23T10:45:02.648Z,2.25
2023-04-23T10:47:24.376Z,2.20
2023-04-23T10:49:42.623Z,2.97
2023-04-23T10:52:18.902Z,2.78
2023-04-23T10:54:36.635Z,2.78
2023-04-23T10:56:53.653Z,2.20
2023-04-23T10:59:10.638Z,2.10
2023-04-23T11:01:27.677Z,2.28
2023-04-23T11:03:45.245Z,3.42
2023-04-23T11:06:02.473Z,2.50
2023-04-23T11:08:20.164Z,2.25
2023-04-23T11:10:37.184Z,2.33
2023-04-23T11:12:54.449Z,2.28
2023-04-23T11:15:11.409Z,2.40
2023-04-23T11:17:28.670Z,2.17
2023-04-23T11:19:47.054Z,2.33
2023-04-23T11:22:04.129Z,2.28
2023-04-23T11:24:21.463Z,2.42
2023-04-23T11:26:38.493Z,2.08
2023-04-23T11:28:55.596Z,2.35
2023-04-23T11:31:12.617Z,2.10
2023-04-23T11:33:29.912Z,2.10
2023-04-23T11:35:47.019Z,2.38
2023-04-23T11:38:04.263Z,2.08
2023-04-23T11:40:22.325Z,2.15
2023-04-23T11:42:39.324Z,2.20
2023-04-23T11:44:56.247Z,1.83
2023-04-23T11:47:13.546Z,2.10
2023-04-23T11:49:30.793Z,1.90
2023-04-23T11:51:47.715Z,2.00
2023-04-23T11:54:04.956Z,2.10
2023-04-23T11:56:21.987Z,2.10
2023-04-23T11:58:39.464Z,2.25
2023-04-23T12:00:56.457Z,2.05
2023-04-23T12:03:13.511Z,2.00
2023-04-23T12:05:30.702Z,1.80
2023-04-23T12:07:48.060Z,1.73
2023-04-23T12:10:05.057Z,1.80
2023-04-23T12:12:22.319Z,2.10
2023-04-23T12:14:39.416Z,1.80
2023-04-23T12:16:57.326Z,1.90
2023-04-23T12:19:14.363Z,2.00
2023-04-23T12:21:31.633Z,1.70
2023-04-23T12:23:48.668Z,1.80
2023-04-23T12:26:05.602Z,2.13
2023-04-23T12:28:22.835Z,1.67
2023-04-23T12:30:40.094Z,1.77
2023-04-23T12:32:57.160Z,1.70
2023-04-23T12:35:14.408Z,1.80
2023-04-23T12:37:31.487Z,1.70
2023-04-23T12:39:48.707Z,1.88
2023-04-23T12:42:05.867Z,1.73
2023-04-23T12:44:23.162Z,1.85
2023-04-23T12:46:40.534Z,1.90
2023-04-23T12:48:58.562Z,1.80
2023-04-23T12:51:15.500Z,1.88
2023-04-23T12:53:33.558Z,1.80
2023-04-23T12:55:50.582Z,1.67
2023-04-23T12:58:08.600Z,1.60
2023-04-23T13:00:25.962Z,1.60
2023-04-23T13:02:43.219Z,1.90
2023-04-23T13:05:00.374Z,1.95
2023-04-23T13:07:17.265Z,1.80
2023-04-23T13:09:34.546Z,1.80
2023-04-23T13:11:52.781Z,1.80
2023-04-23T13:14:09.637Z,1.90
2023-04-23T13:16:27.919Z,1.83
2023-04-23T13:18:46.092Z,1.75
2023-04-23T13:21:03.085Z,1.63
2023-04-23T13:23:20.089Z,1.75
2023-04-23T13:25:37.100Z,1.90
2023-04-23T13:27:54.071Z,1.50
2023-04-23T13:30:11.117Z,1.50
2023-04-23T13:32:28.129Z,1.73
2023-04-23T13:34:45.392Z,1.73
2023-04-23T13:37:02.466Z,2.00
2023-04-23T13:39:20.779Z,1.80
2023-04-23T13:41:37.789Z,2.28
2023-04-23T13:43:55.703Z,1.65
2023-04-23T13:46:12.766Z,1.58
2023-04-23T13:48:29.794Z,1.80
2023-04-23T13:50:46.799Z,1.70
2023-04-23T13:53:03.765Z,1.75
2023-04-23T13:55:20.708Z,1.67
2023-04-23T13:57:37.937Z,1.70
2023-04-23T13:59:55.006Z,1.73
2023-04-23T14:02:12.281Z,1.70
2023-04-23T14:04:29.626Z,1.63
2023-04-23T14:06:46.787Z,1.38
2023-04-23T14:09:03.847Z,1.63
2023-04-23T14:11:21.103Z,1.40
2023-04-23T14:13:38.058Z,1.70
2023-04-23T14:15:55.040Z,1.60
2023-04-23T14:18:13.040Z,1.40
2023-04-23T14:20:29.902Z,1.67
2023-04-23T14:22:46.930Z,1.60
2023-04-23T14:25:04.834Z,1.30
2023-04-23T14:27:21.722Z,1.52
2023-04-23T14:29:38.733Z,1.67
2023-04-23T14:31:56.053Z,1.30
2023-04-23T14:34:13.101Z,1.75
2023-04-23T14:36:30.137Z,1.52
2023-04-23T14:38:47.150Z,1.35
2023-04-23T14:41:05.185Z,1.50
2023-04-23T14:43:22.453Z,1.60
2023-04-23T14:45:39.769Z,1.60
2023-04-23T14:47:57.719Z,1.00
2023-04-23T14:50:14.855Z,1.13
2023-04-23T14:52:32.912Z,0.93
2023-04-23T14:54:50.307Z,1.00
2023-04-23T14:57:07.357Z,1.00
2023-04-23T14:59:24.686Z,1.08
2023-04-23T15:01:41.753Z,1.00
2023-04-23T15:03:58.902Z,1.00
2023-04-23T15:06:16.866Z,1.00
2023-04-23T15:08:33.992Z,1.48
2023-04-23T15:10:51.252Z,0.90
2023-04-23T15:13:09.513Z,1.10
2023-04-23T15:15:37.060Z,0.90
2023-04-23T15:18:00.612Z,1.08
2023-04-23T15:20:17.702Z,0.98
2023-04-23T15:22:34.711Z,0.80
2023-04-23T15:24:52.010Z,0.82
2023-04-23T15:27:09.086Z,1.15
2023-04-23T15:29:26.165Z,0.80
2023-04-23T15:31:43.273Z,0.80
2023-04-23T15:34:01.347Z,1.08
2023-04-23T15:36:18.341Z,0.90
2023-04-23T15:38:35.239Z,0.80
2023-04-23T15:40:52.238Z,0.90
2023-04-23T15:43:09.146Z,0.90
2023-04-23T15:45:26.539Z,1.00
2023-04-23T15:47:43.891Z,1.00
2023-04-23T15:50:00.979Z,0.90
2023-04-23T15:52:18.067Z,0.80
2023-04-23T15:54:35.043Z,0.98
2023-04-23T15:56:52.080Z,0.90
2023-04-23T15:59:11.677Z,0.90
2023-04-23T16:01:29.067Z,1.00
2023-04-23T16:04:01.864Z,0.98
2023-04-23T16:06:23.349Z,1.00
2023-04-23T16:08:40.299Z,1.00
2023-04-23T16:10:57.505Z,1.08
2023-04-23T16:13:14.813Z,0.88
2023-04-23T16:15:31.890Z,0.93
2023-04-23T16:17:49.297Z,0.88
2023-04-23T16:20:07.333Z,1.70
2023-04-23T16:22:24.439Z,2.45
2023-04-23T16:24:41.425Z,1.70
2023-04-23T16:26:58.375Z,2.28
2023-04-23T16:29:22.256Z,1.60
2023-04-23T16:31:40.373Z,1.85
2023-04-23T16:33:57.642Z,4.50
2023-04-23T16:36:14.919Z,6.45
2023-04-23T16:38:31.883Z,1.70
2023-04-23T16:40:48.920Z,1.50
2023-04-23T16:43:05.970Z,1.70
2023-04-23T16:45:23.232Z,1.20
2023-04-23T16:47:40.344Z,1.17
2023-04-23T16:49:58.457Z,1.27
2023-04-23T16:52:15.773Z,1.35
2023-04-23T16:54:32.836Z,1.30
2023-04-23T16:56:50.179Z,1.13
2023-04-23T16:59:07.487Z,1.52
2023-04-23T17:01:24.514Z,1.13
2023-04-23T17:03:41.711Z,1.20
2023-04-23T17:06:00.123Z,1.25
2023-04-23T17:08:17.140Z,1.20
2023-04-23T17:10:34.453Z,1.20
2023-04-23T17:12:51.441Z,1.05
2023-04-23T17:15:09.461Z,0.88
2023-04-23T17:17:26.641Z,1.10
2023-04-23T17:19:44.732Z,1.05
2023-04-23T17:22:02.035Z,1.00
2023-04-23T17:24:19.072Z,0.90
2023-04-23T17:26:36.156Z,1.00
2023-04-23T17:28:53.457Z,1.10
2023-04-23T17:31:10.433Z,1.50
2023-04-23T17:33:28.430Z,1.48
2023-04-23T17:35:45.684Z,1.98
2023-04-23T17:38:02.728Z,2.53
2023-04-23T17:40:20.225Z,4.30
2023-04-23T17:42:37.730Z,3.00
2023-04-23T17:44:54.786Z,2.10
2023-04-23T17:47:11.651Z,1.75
2023-04-23T17:49:28.570Z,1.60
2023-04-23T17:51:45.460Z,1.90
2023-04-23T17:54:02.648Z,2.47
2023-04-23T17:56:19.605Z,3.40
2023-04-23T17:58:38.219Z,2.53
2023-04-23T18:00:55.862Z,2.28
2023-04-23T18:03:13.376Z,1.70
2023-04-23T18:05:30.479Z,1.60
2023-04-23T18:07:47.421Z,1.40
2023-04-23T18:10:04.723Z,1.40
2023-04-23T18:12:21.869Z,1.75
2023-04-23T18:14:40.271Z,1.70
2023-04-23T18:16:57.383Z,1.88
2023-04-23T18:19:17.894Z,2.10
2023-04-23T18:21:34.898Z,3.13
2023-04-23T18:23:51.946Z,4.25
2023-04-23T18:26:08.842Z,4.63
2023-04-23T18:28:25.829Z,3.72
2023-04-23T18:30:42.924Z,3.72
2023-04-23T18:32:59.982Z,3.47
2023-04-23T18:35:17.992Z,4.47
2023-04-23T18:37:35.024Z,4.25
2023-04-23T18:39:52.121Z,3.35
2023-04-23T18:42:09.469Z,2.35
2023-04-23T18:44:26.408Z,1.42
2023-04-23T18:46:43.441Z,1.48
2023-04-23T18:49:00.860Z,1.45
2023-04-23T18:51:18.206Z,1.27
2023-04-23T18:53:35.250Z,1.20
2023-04-23T18:55:52.216Z,1.23
2023-04-23T18:58:09.306Z,1.48
2023-04-23T19:00:26.331Z,1.67
2023-04-23T19:02:44.667Z,1.50
2023-04-23T19:05:01.805Z,1.40
2023-04-23T19:07:18.792Z,1.25
2023-04-23T19:09:36.089Z,1.20
2023-04-23T19:11:54.425Z,1.20
2023-04-23T19:14:11.691Z,1.40
2023-04-23T19:16:28.775Z,1.27
2023-04-23T19:18:46.243Z,2.10
2023-04-23T19:21:03.353Z,2.78
2023-04-23T19:23:20.378Z,2.97
2023-04-23T19:25:37.268Z,2.50
2023-04-23T19:27:54.239Z,1.90
2023-04-23T19:30:11.566Z,1.80
2023-04-23T19:32:28.549Z,1.55
2023-04-23T19:34:45.980Z,1.52
2023-04-23T19:37:02.945Z,1.55
2023-04-23T19:39:20.026Z,1.30
2023-04-23T19:41:37.359Z,1.40
2023-04-23T19:43:54.416Z,1.85
2023-04-23T19:46:11.770Z,1.75
2023-04-23T19:48:29.127Z,1.42
2023-04-23T19:50:46.126Z,1.40
2023-04-23T19:53:03.087Z,1.35
2023-04-23T19:55:20.168Z,1.30
2023-04-23T19:57:38.125Z,1.30
2023-04-23T19:59:55.404Z,1.40
2023-04-23T20:02:12.583Z,1.70
2023-04-23T20:04:29.751Z,1.30
2023-04-23T20:06:46.957Z,1.40
2023-04-23T20:09:03.933Z,1.40
2023-04-23T20:11:20.904Z,1.33
2023-04-23T20:13:38.256Z,1.20
2023-04-23T20:15:55.197Z,1.50
2023-04-23T20:18:12.189Z,1.35
2023-04-23T20:20:30.562Z,1.30
2023-04-23T20:22:47.588Z,1.60
2023-04-23T20:25:04.517Z,1.42
2023-04-23T20:27:22.553Z,1.45
2023-04-23T20:29:39.655Z,1.35
2023-04-23T20:31:57.105Z,1.55
2023-04-23T20:34:14.063Z,1.23
2023-04-23T20:36:31.273Z,1.48
2023-04-23T20:38:48.405Z,1.40
2023-04-23T20:41:05.449Z,1.30
2023-04-23T20:43:22.518Z,1.50
2023-04-23T20:45:39.579Z,1.52
2023-04-23T20:47:56.664Z,1.60
2023-04-23T20:50:13.679Z,2.50
2023-04-23T20:52:30.655Z,2.00
2023-04-23T20:54:48.028Z,1.90
2023-04-23T20:57:04.982Z,1.80
2023-04-23T20:59:21.892Z,2.28
2023-04-23T21:01:39.047Z,2.00
2023-04-23T21:03:56.259Z,2.13
2023-04-23T21:06:13.798Z,1.98
2023-04-23T21:08:30.714Z,1.80
2023-04-23T21:10:48.603Z,1.98
2023-04-23T21:13:06.580Z,2.10
2023-04-23T21:15:23.863Z,1.85
2023-04-23T21:17:40.848Z,2.20
2023-04-23T21:19:59.188Z,1.80
2023-04-23T21:22:16.205Z,1.80
2023-04-23T21:24:33.210Z,1.70
2023-04-23T21:26:50.549Z,1.60
2023-04-23T21:29:08.822Z,1.60
2023-04-23T21:31:25.846Z,1.80
2023-04-23T21:33:43.156Z,1.73
2023-04-23T21:36:00.516Z,1.70
2023-04-23T21:38:17.790Z,1.65
2023-04-23T21:40:35.065Z,1.67
2023-04-23T21:42:52.390Z,1.70
2023-04-23T21:45:09.725Z,1.40
2023-04-23T21:47:26.747Z,1.60
2023-04-23T21:49:44.372Z,1.50
2023-04-23T21:52:01.480Z,1.55
2023-04-23T21:54:18.438Z,1.50
2023-04-23T21:56:35.757Z,1.40
2023-04-23T21:58:53.845Z,1.60
2023-04-23T22:01:10.827Z,1.77
2023-04-23T22:03:38.295Z,1.48
2023-04-23T22:05:56.237Z,1.50
2023-04-23T22:08:13.327Z,1.30
2023-04-23T22:10:30.466Z,1.52
2023-04-23T22:12:47.372Z,1.27
2023-04-23T22:15:05.299Z,1.55
2023-04-23T22:17:22.354Z,1.52
2023-04-23T22:19:39.529Z,1.25
2023-04-23T22:21:56.603Z,1.38
2023-04-23T22:24:13.958Z,1.50
2023-04-23T22:26:31.233Z,1.33
2023-04-23T22:28:49.320Z,1.30
2023-04-23T22:31:07.255Z,1.40
2023-04-23T22:33:24.582Z,1.50
2023-04-23T22:35:41.834Z,1.60
2023-04-23T22:37:59.842Z,1.67
2023-04-23T22:40:17.076Z,1.65
2023-04-23T22:42:34.162Z,1.63
2023-04-23T22:44:51.434Z,1.50
2023-04-23T22:47:08.442Z,1.40
2023-04-23T22:49:26.452Z,1.40
2023-04-23T22:51:43.520Z,1.65
2023-04-23T22:54:01.507Z,1.67
2023-04-23T22:56:18.834Z,1.52
2023-04-23T22:58:35.869Z,2.03
2023-04-23T23:00:52.870Z,2.20
2023-04-23T23:03:10.290Z,1.90
2023-04-23T23:05:27.378Z,1.80
2023-04-23T23:07:46.244Z,1.80
2023-04-23T23:10:03.227Z,1.88
2023-04-23T23:12:20.587Z,2.40
2023-04-23T23:14:37.577Z,2.35
2023-04-23T23:16:54.725Z,2.63
2023-04-23T23:19:11.807Z,2.70
2023-04-23T23:21:28.844Z,2.50
2023-04-23T23:23:45.992Z,2.40
2023-04-23T23:26:02.967Z,2.38
2023-04-23T23:28:21.238Z,2.58
2023-04-23T23:30:38.207Z,2.50
2023-04-23T23:32:55.525Z,2.63
2023-04-23T23:35:12.847Z,2.90
2023-04-23T23:37:30.090Z,2.35
2023-04-23T23:39:47.535Z,2.80
2023-04-23T23:42:06.947Z,2.70
2023-04-23T23:44:24.229Z,2.08
2023-04-23T23:46:41.508Z,2.60
2023-04-23T23:48:58.526Z,2.50
2023-04-23T23:51:15.837Z,2.15
2023-04-23T23:53:32.691Z,2.20
2023-04-23T23:55:50.398Z,2.40
2023-04-23T23:58:07.724Z,2.60
